Time;durP1;ratioP1;P1;durP2;ratioP2;P2;SDS_P1;SDS_P2;PMS_P1;PMS_P2;Temp;Humidity;BMP_temperature;BMP_pressure;BME280_temperature;BME280_humidity;BME280_pressure;Samples;Min_cycle;Max_cycle;Signal;HPM_P1;HPM_P2
2021/06/04 00:01:15;;;;;;;5.07;2.75;;;;;;;15.65;50.57;94567.44;5102840;28;20040;-69
2021/06/04 00:03:42;;;;;;;5.13;2.42;;;;;;;15.63;50.42;94564.31;5099759;28;20030;-70
2021/06/04 00:06:08;;;;;;;10.93;2.40;;;;;;;15.56;50.34;94569.44;5098006;28;20028;-70
2021/06/04 00:08:34;;;;;;;8.10;2.90;;;;;;;15.53;50.48;94559.31;5095809;28;20052;-70
2021/06/04 00:11:20;;;;;;;8.32;2.88;;;;;;;15.50;50.90;94560.75;5099373;28;20031;-70
2021/06/04 00:13:49;;;;;;;7.70;3.83;;;;;;;15.51;51.67;94567.72;5107544;28;20126;-70
2021/06/04 00:16:19;;;;;;;5.40;2.47;;;;;;;15.53;50.98;94556.63;5096500;28;20063;-72
2021/06/04 00:18:46;;;;;;;5.88;2.25;;;;;;;15.53;51.18;94562.00;5099997;28;20033;-71
2021/06/04 00:21:21;;;;;;;6.10;2.70;;;;;;;15.52;50.79;94558.53;5101686;28;20418;-70
2021/06/04 00:23:47;;;;;;;3.38;2.17;;;;;;;15.51;51.41;94550.78;5098573;28;20043;-71
2021/06/04 00:26:13;;;;;;;6.45;2.55;;;;;;;15.48;50.70;94562.22;5095856;28;20029;-70
2021/06/04 00:28:39;;;;;;;4.25;2.60;;;;;;;15.48;51.80;94557.63;5092864;28;20024;-70
2021/06/04 00:31:06;;;;;;;5.88;2.80;;;;;;;15.46;52.11;94554.47;5106688;28;20035;-70
2021/06/04 00:33:32;;;;;;;6.70;2.55;;;;;;;15.42;49.84;94548.97;5097974;28;20024;-70
2021/06/04 00:35:58;;;;;;;5.13;2.08;;;;;;;15.38;49.67;94553.41;5103605;28;20104;-70
2021/06/04 00:38:23;;;;;;;3.65;1.90;;;;;;;15.36;50.13;94555.63;5099926;28;20085;-73
2021/06/04 00:40:53;;;;;;;4.43;2.20;;;;;;;15.35;50.22;94546.03;5094844;28;20520;-70
2021/06/04 00:43:20;;;;;;;4.00;2.35;;;;;;;15.35;51.28;94553.28;5097532;28;20027;-70
2021/06/04 00:45:49;;;;;;;5.28;2.63;;;;;;;15.29;50.10;94552.69;5106153;28;20027;-70
2021/06/04 00:48:15;;;;;;;3.90;2.30;;;;;;;15.28;49.49;94547.63;5095908;28;20372;-70
2021/06/04 00:50:52;;;;;;;5.93;2.25;;;;;;;15.23;49.55;94552.09;5105276;28;20020;-70
2021/06/04 00:53:20;;;;;;;7.72;2.45;;;;;;;15.21;49.83;94553.53;5100450;28;20012;-70
2021/06/04 00:55:46;;;;;;;3.65;2.58;;;;;;;15.24;49.98;94547.50;5097482;28;20060;-69
2021/06/04 00:58:16;;;;;;;5.20;2.38;;;;;;;15.22;49.99;94547.03;5098564;28;20024;-69
2021/06/04 01:00:47;;;;;;;7.88;2.33;;;;;;;15.21;50.71;94540.09;5099659;28;20019;-69
2021/06/04 01:03:13;;;;;;;5.45;2.50;;;;;;;15.17;51.19;94553.38;5096998;28;20028;-69
2021/06/04 01:05:41;;;;;;;3.47;2.30;;;;;;;15.15;51.77;94550.25;5095079;28;20031;-70
2021/06/04 01:08:40;;;;;;;4.78;2.25;;;;;;;15.11;50.69;94543.16;5099291;28;20020;-70
2021/06/04 01:11:17;;;;;;;8.88;2.45;;;;;;;15.07;50.73;94543.03;5099422;28;20040;-70
2021/06/04 01:14:13;;;;;;;5.68;2.15;;;;;;;15.08;51.34;94549.16;5105330;28;20502;-70
2021/06/04 01:16:56;;;;;;;5.15;2.50;;;;;;;15.05;52.07;94546.03;5092896;28;20077;-70
2021/06/04 01:19:34;;;;;;;6.18;2.65;;;;;;;15.01;51.24;94549.69;5101866;28;20032;-70
2021/06/04 01:22:05;;;;;;;5.90;2.13;;;;;;;14.96;50.24;94556.03;5106758;28;20031;-70
2021/06/04 01:24:49;;;;;;;7.32;2.65;;;;;;;14.98;50.47;94555.69;5112701;28;20027;-70
2021/06/04 01:27:25;;;;;;;4.05;2.30;;;;;;;14.92;50.16;94547.06;5109039;28;20020;-70
2021/06/04 01:30:02;;;;;;;2.88;1.95;;;;;;;14.91;51.16;94550.84;5099961;28;20020;-70
2021/06/04 01:32:33;;;;;;;9.02;2.72;;;;;;;14.88;52.76;94551.50;5109011;28;20031;-70
2021/06/04 01:35:06;;;;;;;4.15;2.28;;;;;;;14.85;53.08;94557.50;5107209;28;20023;-70
2021/06/04 01:37:33;;;;;;;5.18;2.53;;;;;;;14.83;53.63;94559.72;5103340;28;20027;-70
2021/06/04 01:40:07;;;;;;;4.10;2.42;;;;;;;14.84;54.11;94555.94;5108671;28;20475;-70
2021/06/04 01:42:36;;;;;;;6.82;2.78;;;;;;;14.81;55.11;94561.94;5111583;28;20122;-70
2021/06/04 01:45:11;;;;;;;9.85;3.08;;;;;;;14.80;54.57;94553.09;5108708;28;20020;-70
2021/06/04 01:47:49;;;;;;;9.10;2.72;;;;;;;14.74;55.03;94558.97;5103887;28;20497;-70
2021/06/04 01:50:21;;;;;;;4.47;2.67;;;;;;;14.72;54.95;94553.16;5099759;28;20050;-70
2021/06/04 01:52:48;;;;;;;6.53;2.60;;;;;;;14.71;54.73;94559.59;5102873;28;20035;-70
2021/06/04 01:55:29;;;;;;;5.78;2.70;;;;;;;14.71;55.06;94559.59;5101471;28;20036;-70
2021/06/04 01:58:04;;;;;;;4.90;2.95;;;;;;;14.70;54.86;94558.03;5105029;28;20118;-69
2021/06/04 02:00:38;;;;;;;6.57;2.33;;;;;;;14.71;55.27;94559.59;5111376;28;20024;-69
2021/06/04 02:03:07;;;;;;;7.28;2.97;;;;;;;14.71;54.85;94559.59;5089937;28;20064;-70
2021/06/04 02:05:36;;;;;;;4.50;2.88;;;;;;;14.73;54.86;94562.75;5102326;28;20034;-69
2021/06/04 02:08:01;;;;;;;9.70;2.75;;;;;;;14.70;55.82;94560.72;5102278;28;20034;-70
2021/06/04 02:10:37;;;;;;;3.75;2.42;;;;;;;14.68;55.51;94565.63;5101190;28;20130;-70
2021/06/04 02:13:05;;;;;;;6.65;2.67;;;;;;;14.66;54.86;94560.56;5110970;28;20047;-70
2021/06/04 02:15:33;;;;;;;3.50;2.45;;;;;;;14.68;55.24;94560.25;5102548;28;20040;-70
2021/06/04 02:18:20;;;;;;;4.72;2.60;;;;;;;14.68;55.41;94558.38;5094944;28;20478;-71
2021/06/04 02:21:17;;;;;;;4.47;2.50;;;;;;;14.65;55.63;94559.00;5110314;28;20027;-70
2021/06/04 02:23:49;;;;;;;6.70;2.95;;;;;;;14.62;55.93;94563.09;5108695;28;20019;-70
2021/06/04 02:26:20;;;;;;;4.47;2.60;;;;;;;14.61;56.33;94566.91;5107152;28;20023;-70
2021/06/04 02:28:53;;;;;;;4.03;2.45;;;;;;;14.56;56.53;94560.94;5102379;28;20027;-70
2021/06/04 02:31:27;;;;;;;5.25;3.03;;;;;;;14.57;56.80;94568.66;5092594;28;20040;-70
2021/06/04 02:34:00;;;;;;;4.57;2.63;;;;;;;14.56;56.54;94566.28;5109221;28;20023;-70
2021/06/04 02:36:31;;;;;;;5.35;3.10;;;;;;;14.56;57.02;94567.06;5104992;28;20035;-70
2021/06/04 02:39:14;;;;;;;6.85;2.60;;;;;;;14.54;56.68;94565.78;5092598;28;20486;-70
2021/06/04 02:41:44;;;;;;;3.72;2.25;;;;;;;14.52;56.57;94571.47;5100214;28;20024;-70
2021/06/04 02:44:18;;;;;;;6.80;2.85;;;;;;;14.51;56.38;94580.66;5098091;28;20093;-70
2021/06/04 02:46:48;;;;;;;12.70;3.17;;;;;;;14.51;55.87;94580.66;5101851;28;20028;-70
2021/06/04 02:49:16;;;;;;;5.75;2.80;;;;;;;14.51;56.40;94583.31;5102429;28;20096;-70
2021/06/04 02:51:50;;;;;;;6.45;2.53;;;;;;;14.53;56.64;94575.75;5103080;28;20475;-70
2021/06/04 02:54:21;;;;;;;11.23;2.85;;;;;;;14.52;54.73;94578.75;5099713;28;20039;-70
2021/06/04 02:56:50;;;;;;;6.85;2.80;;;;;;;14.50;53.76;94573.69;5097128;28;20472;-70
2021/06/04 02:59:41;;;;;;;4.45;2.58;;;;;;;14.48;55.56;94570.53;5104333;28;20080;-71
2021/06/04 03:02:08;;;;;;;4.45;2.60;;;;;;;14.47;55.01;94578.91;5098090;28;20052;-70
2021/06/04 03:04:38;;;;;;;6.13;2.92;;;;;;;14.47;56.51;94582.38;5107020;28;20507;-70
2021/06/04 03:07:08;;;;;;;8.57;2.80;;;;;;;14.44;56.88;94585.69;5104384;28;20032;-70
2021/06/04 03:09:40;;;;;;;12.82;3.05;;;;;;;14.45;56.79;94593.44;5105142;28;20096;-70
2021/06/04 03:12:09;;;;;;;;;;;;;;;14.45;56.96;94588.06;5101439;28;20490;-70
2021/06/04 03:14:35;;;;;;;5.80;2.60;;;;;;;14.38;57.35;94590.44;5096802;28;19912;-70
2021/06/04 03:17:02;;;;;;;5.47;2.67;;;;;;;14.39;57.32;94593.91;5109195;28;20379;-70
2021/06/04 03:19:27;;;;;;;4.78;2.63;;;;;;;14.37;57.38;94598.78;5099197;28;20059;-70
2021/06/04 03:22:00;;;;;;;8.70;2.78;;;;;;;14.38;57.45;94598.47;5103967;27;20516;-70
2021/06/04 03:24:32;;;;;;;3.92;2.95;;;;;;;14.41;57.32;94602.41;5095960;28;20024;-70
2021/06/04 03:27:00;;;;;;;5.18;3.10;;;;;;;14.39;57.09;94607.31;5098493;28;20512;-70
2021/06/04 03:29:26;;;;;;;7.90;2.67;;;;;;;14.40;57.10;94608.91;5099593;28;20403;-70
2021/06/04 03:31:56;;;;;;;6.03;2.80;;;;;;;14.43;57.68;94606.38;5097542;28;20417;-70
2021/06/04 03:34:23;;;;;;;7.15;3.40;;;;;;;14.42;57.50;94604.78;5103226;28;20079;-70
2021/06/04 03:36:51;;;;;;;5.70;2.78;;;;;;;14.46;57.35;94610.31;5105275;28;20414;-70
2021/06/04 03:39:21;;;;;;;5.03;3.30;;;;;;;14.49;57.32;94615.03;5096435;28;20072;-70
2021/06/04 03:41:49;;;;;;;7.00;3.25;;;;;;;14.49;57.51;94615.03;5094825;28;20027;-70
2021/06/04 03:44:17;;;;;;;5.63;2.97;;;;;;;14.52;57.47;94616.28;5105694;28;20108;-71
2021/06/04 03:50:07;;;;;;;9.88;3.53;;;;;;;14.60;57.26;94612.84;5101590;28;20077;-70
2021/06/04 03:52:32;;;;;;;6.03;2.80;;;;;;;14.64;57.36;94619.91;5103315;28;20058;-70
2021/06/04 03:54:59;;;;;;;4.82;3.38;;;;;;;14.67;57.07;94609.66;5100765;28;20429;-70
2021/06/04 03:57:28;;;;;;;10.55;3.60;;;;;;;14.72;56.77;94609.50;5106251;28;20336;-70
2021/06/04 03:59:55;;;;;;;5.75;3.10;;;;;;;14.78;57.35;94613.56;5101332;28;20023;-70
2021/06/04 04:02:23;;;;;;;10.48;2.95;;;;;;;14.75;57.61;94616.88;5102381;28;20108;-70
2021/06/04 04:04:50;;;;;;;9.60;3.17;;;;;;;14.74;56.23;94616.09;5098035;28;20031;-70
2021/06/04 04:07:15;;;;;;;8.82;3.20;;;;;;;14.72;55.77;94621.00;5107145;28;20106;-70
2021/06/04 04:09:41;;;;;;;5.22;3.63;;;;;;;14.74;55.41;94620.69;5100052;28;20119;-70
2021/06/04 04:12:07;;;;;;;7.82;3.78;;;;;;;14.78;54.97;94627.00;5098940;28;20085;-70
2021/06/04 04:14:33;;;;;;;5.50;3.70;;;;;;;14.83;55.57;94629.50;5107205;28;20376;-70
2021/06/04 04:16:58;;;;;;;5.88;2.88;;;;;;;14.84;53.73;94636.44;5102943;28;20020;-70
2021/06/04 04:19:24;;;;;;;8.00;3.45;;;;;;;14.81;53.37;94626.34;5090915;28;20032;-70
2021/06/04 04:21:52;;;;;;;9.50;2.88;;;;;;;14.82;54.27;94617.97;5093960;28;20036;-70
2021/06/04 04:24:25;;;;;;;9.55;2.90;;;;;;;14.84;53.25;94621.13;5092283;28;20463;-70
2021/06/04 04:26:51;;;;;;;10.50;3.35;;;;;;;14.92;53.32;94629.44;5107150;28;20019;-70
2021/06/04 04:29:16;;;;;;;5.53;3.00;;;;;;;14.93;54.36;94629.13;5097074;28;20031;-70
2021/06/04 04:31:50;;;;;;;7.75;3.20;;;;;;;14.95;55.14;94626.13;5109841;28;20023;-70
2021/06/04 04:34:17;;;;;;;5.93;2.92;;;;;;;14.98;55.18;94637.03;5101288;28;20028;-70
2021/06/04 04:36:53;;;;;;;6.25;2.80;;;;;;;15.01;56.33;94636.38;5105254;28;20027;-71
2021/06/04 04:39:22;;;;;;;9.93;3.22;;;;;;;15.05;55.01;94642.66;5101082;28;20027;-71
2021/06/04 04:41:49;;;;;;;10.38;4.53;;;;;;;15.07;54.12;94638.88;5105115;28;20040;-70
2021/06/04 04:44:17;;;;;;;8.00;3.40;;;;;;;15.04;55.33;94641.13;5102055;28;20031;-70
2021/06/04 04:46:43;;;;;;;18.70;3.78;;;;;;;15.03;56.16;94631.47;5095297;28;20559;-70
2021/06/04 04:49:08;;;;;;;10.60;3.65;;;;;;;15.07;52.01;94638.88;5102535;28;20106;-71
2021/06/04 04:51:35;;;;;;;9.82;2.95;;;;;;;15.09;50.89;94639.34;5102004;28;20039;-70
2021/06/04 04:54:01;;;;;;;5.10;2.38;;;;;;;15.08;51.01;94637.75;5102416;28;20028;-70
2021/06/04 04:56:27;;;;;;;6.15;2.33;;;;;;;15.10;51.14;94652.47;5108797;28;20038;-71
2021/06/04 04:58:53;;;;;;;5.38;2.10;;;;;;;15.10;47.38;94655.16;5104454;28;20054;-70
2021/06/04 05:01:19;;;;;;;4.65;2.13;;;;;;;15.08;48.42;94645.81;5101896;28;20439;-69
2021/06/04 05:03:45;;;;;;;3.55;2.17;;;;;;;15.08;48.75;94651.97;5107367;28;20062;-71
2021/06/04 05:06:11;;;;;;;7.22;1.88;;;;;;;15.02;44.85;94654.06;5110767;28;20068;-70
2021/06/04 05:08:37;;;;;;;6.63;1.90;;;;;;;15.08;46.24;94648.50;5102005;28;20507;-70
2021/06/04 05:11:04;;;;;;;7.60;2.13;;;;;;;15.11;46.32;94650.56;5099851;28;20106;-71
2021/06/04 05:13:30;;;;;;;6.28;2.17;;;;;;;15.27;47.04;94659.66;5108866;28;20035;-70
2021/06/04 05:15:56;;;;;;;5.93;2.05;;;;;;;15.32;46.07;94661.38;5106526;28;20544;-70
2021/06/04 05:18:21;;;;;;;7.32;2.13;;;;;;;15.40;46.13;94655.16;5100166;28;20115;-70
2021/06/04 05:20:48;;;;;;;4.32;2.00;;;;;;;15.35;45.34;94661.50;5103786;28;20024;-71
2021/06/04 05:23:16;;;;;;;4.50;2.00;;;;;;;15.46;46.44;94659.25;5109239;28;20034;-70
2021/06/04 05:25:45;;;;;;;4.75;2.08;;;;;;;15.51;46.42;94669.00;5104071;28;20029;-70
2021/06/04 05:28:14;;;;;;;8.10;2.38;;;;;;;15.46;45.06;94664.63;5102320;28;20024;-70
2021/06/04 05:30:44;;;;;;;3.10;1.92;;;;;;;15.53;45.53;94669.47;5108573;28;20485;-70
2021/06/04 05:33:14;;;;;;;4.70;1.80;;;;;;;15.51;43.75;94664.44;5096780;28;20123;-71
2021/06/04 05:35:41;;;;;;;5.35;1.67;;;;;;;15.50;44.35;94670.13;5103030;28;20027;-71
2021/06/04 05:38:07;;;;;;;3.65;1.77;;;;;;;15.51;43.56;94669.00;5101212;28;20054;-70
2021/06/04 05:40:39;;;;;;;3.30;2.30;;;;;;;15.51;44.01;94669.00;5099909;28;20056;-70
2021/06/04 05:43:07;;;;;;;7.13;2.05;;;;;;;15.52;44.13;94670.59;5093580;28;20114;-70
2021/06/04 05:45:37;;;;;;;3.95;2.67;;;;;;;15.51;45.53;94669.00;5106970;28;20028;-70
2021/06/04 05:48:03;;;;;;;6.30;2.17;;;;;;;15.50;44.76;94672.81;5099343;28;20395;-70
2021/06/04 05:50:35;;;;;;;3.60;2.00;;;;;;;15.42;45.58;94677.13;5109066;28;20032;-70
2021/06/04 05:53:01;;;;;;;;;;;;;;;15.37;44.96;94678.09;5103960;28;20020;-70
2021/06/04 05:55:28;;;;;;;7.50;2.15;;;;;;;15.30;45.70;94677.78;5105617;28;19911;-70
2021/06/04 05:57:54;;;;;;;7.68;2.65;;;;;;;15.17;46.01;94676.91;5103892;28;20020;-70
2021/06/04 06:00:26;;;;;;;11.40;2.90;;;;;;;15.15;46.24;94675.66;5106609;28;20524;-69
2021/06/04 06:02:51;;;;;;;8.18;2.22;;;;;;;15.19;45.69;94677.38;5102262;28;20080;-70
2021/06/04 06:05:17;;;;;;;20.50;2.75;;;;;;;15.24;46.27;94681.78;5107146;28;20032;-70
2021/06/04 06:07:43;;;;;;;5.38;2.45;;;;;;;15.25;46.43;94688.72;5109563;28;20383;-69
2021/06/04 06:10:09;;;;;;;8.20;3.08;;;;;;;15.28;45.42;94684.59;5100622;28;20048;-70
2021/06/04 06:12:36;;;;;;;12.02;2.20;;;;;;;15.35;45.94;94685.69;5092168;28;20028;-70
2021/06/04 06:15:03;;;;;;;14.57;2.40;;;;;;;15.38;46.57;94687.72;5100173;28;20110;-70
2021/06/04 06:17:28;;;;;;;12.25;2.83;;;;;;;15.46;45.95;94683.41;5101477;28;20031;-69
2021/06/04 06:19:53;;;;;;;12.02;3.55;;;;;;;15.48;46.14;94686.56;5103019;28;20036;-69
2021/06/04 06:22:19;;;;;;;4.95;2.85;;;;;;;15.48;46.13;94681.19;5111437;28;20537;-69
2021/06/04 06:24:44;;;;;;;8.30;2.78;;;;;;;15.64;45.71;94698.34;5105651;28;20026;-70
2021/06/04 06:27:10;;;;;;;7.68;2.50;;;;;;;15.53;44.88;94696.34;5104352;28;20497;-70
2021/06/04 06:29:37;;;;;;;8.43;2.47;;;;;;;15.55;46.06;94684.19;5100577;28;20023;-69
2021/06/04 06:32:05;;;;;;;17.58;3.15;;;;;;;15.66;46.22;94684.59;5098521;28;20198;-71
2021/06/04 06:34:31;;;;;;;9.82;2.95;;;;;;;15.78;46.17;94682.00;5102717;28;20020;-70
2021/06/04 06:36:57;;;;;;;5.00;2.60;;;;;;;15.83;45.52;94681.84;5099780;28;20024;-70
2021/06/04 06:39:31;;;;;;;6.65;2.58;;;;;;;15.94;45.37;94676.84;5104897;28;20016;-70
2021/06/04 06:41:58;;;;;;;7.25;2.60;;;;;;;16.01;45.62;94682.50;5093833;28;20035;-70
2021/06/04 06:44:25;;;;;;;13.38;2.83;;;;;;;15.99;45.00;94683.94;5099195;28;20107;-70
2021/06/04 06:46:52;;;;;;;8.15;2.88;;;;;;;16.01;45.94;94670.94;5100790;28;20019;-70
2021/06/04 06:49:21;;;;;;;8.80;3.17;;;;;;;16.13;45.83;94670.25;5099418;28;20024;-70
2021/06/04 06:51:47;;;;;;;6.97;2.40;;;;;;;16.21;45.42;94672.84;5100842;28;20491;-70
2021/06/04 06:54:17;;;;;;;6.38;2.88;;;;;;;16.37;46.72;94673.06;5100447;28;20035;-70
2021/06/04 06:56:45;;;;;;;6.10;2.67;;;;;;;16.48;44.70;94673.41;5097961;28;20028;-70
2021/06/04 06:59:12;;;;;;;6.57;2.65;;;;;;;16.40;45.29;94677.75;5106341;28;20110;-70
2021/06/04 07:01:38;;;;;;;12.85;2.80;;;;;;;16.48;45.32;94670.72;5101928;28;20130;-75
2021/06/04 07:04:04;;;;;;;10.05;2.90;;;;;;;16.56;45.07;94672.56;5100822;28;20038;-75
2021/06/04 07:06:32;;;;;;;5.63;2.67;;;;;;;16.59;43.42;94668.44;5103469;28;20031;-76
2021/06/04 07:08:58;;;;;;;5.65;2.88;;;;;;;16.60;43.68;94672.69;5104735;28;20119;-76
2021/06/04 07:11:27;;;;;;;5.97;2.63;;;;;;;16.65;43.45;94669.81;5104426;28;20535;-76
2021/06/04 07:13:54;;;;;;;7.40;2.67;;;;;;;16.87;44.34;94667.88;5102508;28;20031;-76
2021/06/04 07:16:20;;;;;;;14.27;2.97;;;;;;;17.05;44.22;94672.72;5095485;28;20051;-77
2021/06/04 07:18:50;;;;;;;3.95;2.17;;;;;;;17.03;42.33;94677.66;5100587;28;20038;-81
2021/06/04 07:21:16;;;;;;;8.40;2.20;;;;;;;16.93;43.54;94677.31;5091730;28;20039;-80
2021/06/04 07:23:42;;;;;;;10.57;2.78;;;;;;;16.97;43.79;94657.44;5096816;28;20027;-77
2021/06/04 07:26:15;;;;;;;4.07;2.25;;;;;;;16.96;43.16;94680.13;5107012;28;20035;-76
2021/06/04 07:28:40;;;;;;;6.68;2.50;;;;;;;17.03;43.41;94676.88;5109305;28;20027;-76
2021/06/04 07:31:09;;;;;;;4.88;2.60;;;;;;;17.11;43.21;94681.38;5107970;28;20463;-77
2021/06/04 07:33:49;;;;;;;5.95;2.08;;;;;;;17.10;43.52;94674.44;5100247;28;20031;-77
2021/06/04 07:36:25;;;;;;;6.60;2.10;;;;;;;17.13;42.00;94678.34;5097860;28;20481;-76
2021/06/04 07:38:51;;;;;;;4.32;2.47;;;;;;;17.29;42.16;94676.59;5098610;28;20055;-74
2021/06/04 07:41:17;;;;;;;8.35;2.78;;;;;;;17.49;43.07;94677.59;5092883;28;20383;-76
2021/06/04 07:43:45;;;;;;;13.10;4.38;;;;;;;17.66;45.44;94687.38;5106216;28;20080;-76
2021/06/04 07:46:15;;;;;;;16.05;4.18;;;;;;;17.71;44.25;94689.84;5096988;28;20350;-75
2021/06/04 07:48:41;;;;;;;11.65;3.92;;;;;;;17.77;44.40;94677.72;5110417;28;20474;-77
2021/06/04 07:51:16;;;;;;;11.15;3.70;;;;;;;17.98;45.00;94682.22;5103392;28;20498;-76
2021/06/04 07:53:41;;;;;;;7.25;3.75;;;;;;;18.20;44.66;94679.03;5106052;28;20054;-76
2021/06/04 07:56:10;;;;;;;8.45;3.47;;;;;;;18.28;42.60;94684.59;5104702;28;20500;-76
2021/06/04 07:58:36;;;;;;;13.05;3.28;;;;;;;18.52;42.86;94675.66;5102192;28;20133;-75
2021/06/04 08:01:03;;;;;;;7.25;3.03;;;;;;;18.82;42.08;94686.91;5094599;28;20032;-74
2021/06/04 08:03:30;;;;;;;5.68;3.40;;;;;;;18.92;40.14;94691.81;5099985;28;20050;-73
2021/06/04 08:05:57;;;;;;;6.07;2.58;;;;;;;18.93;40.41;94687.19;5102503;28;20102;-74
2021/06/04 08:08:23;;;;;;;6.90;2.58;;;;;;;18.99;40.72;94692.03;5103004;28;20016;-74
2021/06/04 08:10:49;;;;;;;6.13;2.78;;;;;;;19.20;40.68;94699.09;5101804;28;20023;-74
2021/06/04 08:13:16;;;;;;;9.20;2.97;;;;;;;19.16;40.19;94693.59;5099231;28;20032;-76
2021/06/04 08:15:46;;;;;;;3.85;2.80;;;;;;;18.93;39.78;94698.81;5093302;28;20047;-75
2021/06/04 08:18:30;;;;;;;6.30;3.03;;;;;;;18.98;40.07;94697.75;5097720;28;20035;-76
2021/06/04 08:20:57;;;;;;;15.07;2.80;;;;;;;19.10;40.17;94702.31;5091006;28;20028;-77
2021/06/04 08:23:29;;;;;;;13.45;3.00;;;;;;;19.14;40.59;94692.38;5090404;28;20024;-77
2021/06/04 08:25:57;;;;;;;;;;;;;;;19.18;40.44;94696.75;5098446;28;20020;-75
2021/06/04 08:28:26;;;;;;;5.60;2.22;;;;;;;19.37;39.49;94701.47;5100962;27;20002;-74
2021/06/04 08:30:52;;;;;;;4.32;2.42;;;;;;;19.37;39.33;94696.06;5093512;28;20024;-74
2021/06/04 08:33:33;;;;;;;5.85;2.50;;;;;;;19.44;39.42;94700.88;5094645;28;20058;-75
2021/06/04 08:35:59;;;;;;;8.95;3.10;;;;;;;19.44;39.64;94695.47;5102537;28;20024;-75
2021/06/04 08:38:29;;;;;;;8.38;2.70;;;;;;;19.58;39.43;94700.41;5089211;28;20080;-75
2021/06/04 08:41:42;;;;;;;4.68;2.40;;;;;;;19.62;38.14;94702.09;5095376;28;20020;-75
2021/06/04 08:44:29;;;;;;;4.30;2.35;;;;;;;19.81;38.81;94701.38;5094718;28;20410;-76
2021/06/04 08:47:16;;;;;;;7.45;2.28;;;;;;;19.93;37.53;94702.44;5093895;28;20119;-75
2021/06/04 08:50:09;;;;;;;4.72;2.33;;;;;;;20.00;37.30;94691.75;5086908;28;20447;-78
2021/06/04 08:52:54;;;;;;;13.07;2.60;;;;;;;20.03;37.60;94691.84;5096248;28;20103;-78
2021/06/04 08:55:44;;;;;;;10.00;2.45;;;;;;;20.15;38.80;94695.56;5106810;28;20055;-81
2021/06/04 08:58:40;;;;;;;7.07;2.28;;;;;;;20.38;36.96;94699.16;5097195;28;20031;-81
2021/06/04 09:01:18;;;;;;;4.80;2.45;;;;;;;20.45;36.69;94706.63;5101774;28;20512;-80
2021/06/04 09:03:55;;;;;;;5.22;2.05;;;;;;;20.38;36.14;94711.91;5108216;28;20024;-81
2021/06/04 09:06:28;;;;;;;18.70;4.35;;;;;;;20.27;36.47;94705.47;5101766;28;20031;-78
2021/06/04 09:08:58;;;;;;;6.05;2.15;;;;;;;20.00;36.61;94702.59;5106605;28;20041;-77
2021/06/04 09:11:38;;;;;;;10.95;2.10;;;;;;;20.10;36.94;94703.97;5094536;28;20032;-80
2021/06/04 09:14:07;;;;;;;4.78;2.20;;;;;;;20.38;37.94;94703.81;5113564;28;20031;-79
2021/06/04 09:16:41;;;;;;;5.03;1.70;;;;;;;20.62;35.96;94710.91;5104748;28;20028;-81
2021/06/04 09:19:29;;;;;;;6.53;2.80;;;;;;;20.69;34.75;94708.31;5099090;28;20036;-79
2021/06/04 09:21:55;;;;;;;5.43;1.90;;;;;;;20.64;36.22;94714.81;5089701;28;20452;-78
2021/06/04 09:24:41;;;;;;;8.15;2.20;;;;;;;20.40;36.00;94698.81;5102262;28;20174;-80
2021/06/04 09:27:54;;;;;;;5.85;1.98;;;;;;;20.23;37.13;94698.09;5103272;28;20398;-79
2021/06/04 09:30:35;;;;;;;3.30;1.83;;;;;;;19.68;37.51;94694.47;5060451;28;20040;-77
2021/06/04 09:33:13;;;;;;;10.70;2.15;;;;;;;19.53;39.88;94700.69;5098646;28;20044;-76
2021/06/04 09:36:06;;;;;;;8.63;2.63;;;;;;;19.51;39.37;94697.56;5104696;28;20028;-77
2021/06/04 09:38:55;;;;;;;6.97;2.60;;;;;;;19.31;39.52;94692.03;5094847;28;20036;-77
2021/06/04 09:41:23;;;;;;;6.93;2.22;;;;;;;19.44;41.43;94693.53;5106172;28;20039;-77
2021/06/04 09:44:03;;;;;;;3.70;2.22;;;;;;;19.62;39.48;94693.16;5091699;28;20038;-78
2021/06/04 09:46:39;;;;;;;5.68;2.20;;;;;;;19.69;39.94;94679.81;5101772;28;20080;-78
2021/06/04 09:49:05;;;;;;;3.47;1.75;;;;;;;19.73;36.36;94686.13;5101381;28;20023;-78
2021/06/04 09:51:39;;;;;;;5.25;2.05;;;;;;;19.78;36.60;94677.75;5114350;28;20034;-79
2021/06/04 09:54:28;;;;;;;4.75;2.08;;;;;;;19.80;35.69;94674.69;5102961;28;20415;-77
2021/06/04 09:57:09;;;;;;;4.78;1.90;;;;;;;20.00;36.33;94672.81;5089706;28;20020;-78
2021/06/04 09:59:36;;;;;;;9.75;1.92;;;;;;;20.37;37.64;94675.94;5111445;27;20410;-78
2021/06/04 10:02:02;;;;;;;4.85;2.05;;;;;;;20.81;36.56;94677.59;5129043;28;20043;-78
2021/06/04 10:04:33;;;;;;;4.07;1.80;;;;;;;21.23;37.04;94676.81;5119984;28;20028;-77
2021/06/04 10:07:23;;;;;;;9.10;2.70;;;;;;;21.64;34.29;94669.78;5115303;28;20023;-77
2021/06/04 10:13:33;;;;;;;7.28;2.45;;;;;;;21.87;32.20;94666.22;5114900;28;20088;-77
2021/06/04 10:16:02;;;;;;;5.18;1.77;;;;;;;21.86;32.05;94674.72;5113778;28;20051;-77
2021/06/04 10:18:32;;;;;;;7.40;2.38;;;;;;;21.98;32.22;94671.81;5114341;28;20066;-77
2021/06/04 10:21:24;;;;;;;9.52;2.10;;;;;;;22.00;30.79;94667.59;5114229;28;20027;-77
2021/06/04 10:23:53;;;;;;;;;;;;;;;21.87;31.16;94676.31;5114575;28;20461;-77
2021/06/04 10:26:28;;;;;;;6.85;1.67;;;;;;;21.96;31.85;94668.69;5114490;28;19943;-77
2021/06/04 10:29:11;;;;;;;3.25;2.05;;;;;;;22.11;30.94;94665.03;5114346;28;20474;-77
2021/06/04 10:31:45;;;;;;;;;;;;;;;22.16;30.13;94658.47;5113757;28;20118;-76
2021/06/04 10:34:23;;;;;;;5.07;1.65;;;;;;;22.22;29.58;94665.16;5105314;28;19916;-74
2021/06/04 10:36:54;;;;;;;3.90;1.77;;;;;;;22.27;29.39;94669.50;5108111;28;20050;-76
2021/06/04 10:39:28;;;;;;;3.75;1.77;;;;;;;22.29;29.52;94662.59;5098580;28;20031;-74
2021/06/04 10:42:51;;;;;;;5.60;1.80;;;;;;;22.53;30.85;94665.97;5101055;28;20464;-76
2021/06/04 10:45:19;;;;;;;7.45;2.10;;;;;;;22.75;29.68;94665.06;5064966;28;20503;-74
2021/06/04 10:47:50;;;;;;;4.45;2.20;;;;;;;22.81;28.84;94662.81;5093336;28;20023;-74
2021/06/04 10:50:27;;;;;;;6.07;2.00;;;;;;;22.80;28.48;94667.47;5112104;28;20483;-74
2021/06/04 10:53:30;;;;;;;4.05;1.88;;;;;;;22.74;28.81;94673.59;5110335;28;20111;-75
2021/06/04 10:56:04;;;;;;;7.75;2.22;;;;;;;22.56;29.44;94668.72;5108023;28;20048;-75
2021/06/04 10:58:44;;;;;;;8.90;2.33;;;;;;;22.24;30.60;94665.59;5106417;28;20453;-75
2021/06/04 11:01:18;;;;;;;5.15;1.95;;;;;;;22.28;31.85;94660.22;5095265;28;20031;-75
2021/06/04 11:04:22;;;;;;;12.48;2.60;;;;;;;22.29;32.54;94665.31;5101603;28;20024;-75
2021/06/04 11:06:58;;;;;;;4.97;1.88;;;;;;;22.29;31.51;94657.16;5090241;28;20036;-75
2021/06/04 11:09:36;;;;;;;5.70;2.05;;;;;;;21.96;31.95;94664.06;5103666;28;20040;-78
2021/06/04 11:12:47;;;;;;;2.85;1.67;;;;;;;22.09;32.27;94659.19;5093907;28;20032;-76
2021/06/04 11:15:34;;;;;;;9.27;2.17;;;;;;;22.10;31.87;94652.59;5102522;28;20062;-75
2021/06/04 11:18:14;;;;;;;3.22;1.60;;;;;;;22.19;31.89;94653.13;5100421;28;20090;-77
2021/06/04 11:20:47;;;;;;;8.20;1.70;;;;;;;22.16;30.02;94640.25;5091888;28;20040;-76
2021/06/04 11:23:29;;;;;;;6.85;1.70;;;;;;;22.03;31.47;94630.78;5104379;28;20023;-75
2021/06/04 11:26:06;;;;;;;4.83;1.70;;;;;;;22.11;30.05;94628.97;5092764;28;20020;-75
2021/06/04 11:28:42;;;;;;;4.25;1.63;;;;;;;22.11;31.00;94631.69;5087229;28;20112;-76
2021/06/04 11:31:17;;;;;;;5.85;1.83;;;;;;;22.19;30.69;94634.09;5091781;28;20069;-76
2021/06/04 11:33:52;;;;;;;4.53;1.40;;;;;;;22.39;30.64;94626.63;5092876;28;20024;-77
2021/06/04 11:36:30;;;;;;;4.55;1.73;;;;;;;22.35;31.11;94630.47;5095324;28;20031;-75
2021/06/04 11:39:06;;;;;;;3.38;1.83;;;;;;;22.36;30.68;94634.72;5107270;28;20021;-77
2021/06/04 11:41:50;;;;;;;7.10;1.95;;;;;;;22.39;30.06;94625.84;5098694;28;20030;-77
2021/06/04 11:44:27;;;;;;;3.78;1.95;;;;;;;22.34;31.54;94623.44;5101357;28;20486;-77
2021/06/04 11:47:11;;;;;;;6.43;1.88;;;;;;;22.51;31.27;94616.66;5101669;28;20519;-77
2021/06/04 11:49:55;;;;;;;6.22;1.48;;;;;;;22.42;29.07;94620.44;5102086;28;20403;-76
2021/06/04 11:52:34;;;;;;;5.05;1.73;;;;;;;22.58;29.90;94616.75;5094215;28;20055;-77
2021/06/04 11:55:40;;;;;;;6.45;2.58;;;;;;;22.88;30.67;94613.97;5100939;28;20028;-77
2021/06/04 11:58:37;;;;;;;2.75;1.70;;;;;;;23.19;28.73;94618.16;5089501;27;20108;-77
2021/06/04 12:01:20;;;;;;;4.50;2.17;;;;;;;23.60;29.37;94620.03;5098458;28;20059;-78
2021/06/04 12:04:09;;;;;;;5.68;2.28;;;;;;;23.91;27.62;94620.66;5098081;28;20027;-76
2021/06/04 12:06:50;;;;;;;5.55;2.13;;;;;;;24.10;27.39;94614.94;5104967;28;20031;-76